sensor_id;sensor_type;location;lat;lon;timestamp;P1;durP1;ratioP1;P2;durP2;ratioP2
5363;SDS011;2705;41.410;2.160;2022-10-16T00:00:40;24.60;;;8.00;;
5363;SDS011;2705;41.410;2.160;2022-10-16T00:03:11;18.67;;;7.57;;
5363;SDS011;2705;41.410;2.160;2022-10-16T00:05:41;13.20;;;6.93;;
5363;SDS011;2705;41.410;2.160;2022-10-16T00:08:11;15.20;;;7.30;;
5363;SDS011;2705;41.410;2.160;2022-10-16T00:10:41;11.83;;;7.00;;
5363;SDS011;2705;41.410;2.160;2022-10-16T00:13:10;11.90;;;7.80;;
5363;SDS011;2705;41.410;2.160;2022-10-16T00:15:41;20.23;;;9.80;;
5363;SDS011;2705;41.410;2.160;2022-10-16T00:18:11;10.00;;;7.20;;
5363;SDS011;2705;41.410;2.160;2022-10-16T00:20:41;13.57;;;7.07;;
5363;SDS011;2705;41.410;2.160;2022-10-16T00:23:29;9.30;;;6.10;;
5363;SDS011;2705;41.410;2.160;2022-10-16T00:25:59;9.50;;;5.90;;
5363;SDS011;2705;41.410;2.160;2022-10-16T00:28:30;11.47;;;6.20;;
5363;SDS011;2705;41.410;2.160;2022-10-16T00:31:03;10.47;;;6.70;;
5363;SDS011;2705;41.410;2.160;2022-10-16T00:33:34;9.97;;;6.30;;
5363;SDS011;2705;41.410;2.160;2022-10-16T00:36:05;6.80;;;5.40;;
5363;SDS011;2705;41.410;2.160;2022-10-16T00:38:38;10.60;;;6.40;;
5363;SDS011;2705;41.410;2.160;2022-10-16T00:41:09;8.33;;;5.53;;
5363;SDS011;2705;41.410;2.160;2022-10-16T00:43:42;8.43;;;6.00;;
5363;SDS011;2705;41.410;2.160;2022-10-16T00:46:16;8.73;;;5.67;;
5363;SDS011;2705;41.410;2.160;2022-10-16T00:48:49;13.13;;;5.60;;
5363;SDS011;2705;41.410;2.160;2022-10-16T00:51:23;7.87;;;5.00;;
5363;SDS011;2705;41.410;2.160;2022-10-16T00:53:56;9.20;;;5.57;;
5363;SDS011;2705;41.410;2.160;2022-10-16T00:56:25;10.03;;;5.70;;
5363;SDS011;2705;41.410;2.160;2022-10-16T00:58:55;12.83;;;6.17;;
5363;SDS011;2705;41.410;2.160;2022-10-16T01:01:26;13.00;;;5.73;;
5363;SDS011;2705;41.410;2.160;2022-10-16T01:03:57;12.20;;;7.37;;
5363;SDS011;2705;41.410;2.160;2022-10-16T01:06:28;9.23;;;6.57;;
5363;SDS011;2705;41.410;2.160;2022-10-16T01:09:08;14.53;;;5.80;;
5363;SDS011;2705;41.410;2.160;2022-10-16T01:11:44;7.40;;;6.27;;
5363;SDS011;2705;41.410;2.160;2022-10-16T01:14:21;7.27;;;5.30;;
5363;SDS011;2705;41.410;2.160;2022-10-16T01:16:58;9.67;;;5.07;;
5363;SDS011;2705;41.410;2.160;2022-10-16T01:19:44;8.13;;;5.33;;
5363;SDS011;2705;41.410;2.160;2022-10-16T01:22:33;11.53;;;5.43;;
5363;SDS011;2705;41.410;2.160;2022-10-16T01:25:09;14.10;;;6.47;;
5363;SDS011;2705;41.410;2.160;2022-10-16T01:27:46;15.33;;;6.70;;
5363;SDS011;2705;41.410;2.160;2022-10-16T01:30:18;12.63;;;8.37;;
5363;SDS011;2705;41.410;2.160;2022-10-16T01:32:52;17.23;;;7.60;;
5363;SDS011;2705;41.410;2.160;2022-10-16T01:35:26;14.70;;;8.73;;
5363;SDS011;2705;41.410;2.160;2022-10-16T01:37:58;15.13;;;10.23;;
5363;SDS011;2705;41.410;2.160;2022-10-16T01:40:32;20.77;;;10.90;;
5363;SDS011;2705;41.410;2.160;2022-10-16T01:43:06;15.50;;;10.40;;
5363;SDS011;2705;41.410;2.160;2022-10-16T01:45:41;17.27;;;10.10;;
5363;SDS011;2705;41.410;2.160;2022-10-16T01:48:13;14.20;;;10.33;;
5363;SDS011;2705;41.410;2.160;2022-10-16T01:50:50;13.40;;;10.37;;
5363;SDS011;2705;41.410;2.160;2022-10-16T01:53:26;15.73;;;10.47;;
5363;SDS011;2705;41.410;2.160;2022-10-16T01:55:56;17.60;;;10.77;;
5363;SDS011;2705;41.410;2.160;2022-10-16T01:58:29;20.47;;;10.47;;
5363;SDS011;2705;41.410;2.160;2022-10-16T02:01:01;23.80;;;11.13;;
5363;SDS011;2705;41.410;2.160;2022-10-16T02:03:33;21.23;;;11.43;;
5363;SDS011;2705;41.410;2.160;2022-10-16T02:06:08;22.03;;;12.90;;
5363;SDS011;2705;41.410;2.160;2022-10-16T02:08:37;16.67;;;11.23;;
5363;SDS011;2705;41.410;2.160;2022-10-16T02:11:10;21.80;;;12.00;;
5363;SDS011;2705;41.410;2.160;2022-10-16T02:13:43;18.40;;;12.07;;
5363;SDS011;2705;41.410;2.160;2022-10-16T02:16:16;16.60;;;10.67;;
5363;SDS011;2705;41.410;2.160;2022-10-16T02:18:46;20.90;;;11.53;;
5363;SDS011;2705;41.410;2.160;2022-10-16T02:21:16;27.27;;;12.00;;
5363;SDS011;2705;41.410;2.160;2022-10-16T02:23:51;16.67;;;11.70;;
5363;SDS011;2705;41.410;2.160;2022-10-16T02:26:27;17.30;;;11.37;;
5363;SDS011;2705;41.410;2.160;2022-10-16T02:29:03;16.73;;;11.10;;
5363;SDS011;2705;41.410;2.160;2022-10-16T02:31:38;17.33;;;10.83;;
5363;SDS011;2705;41.410;2.160;2022-10-16T02:34:14;15.03;;;9.53;;
5363;SDS011;2705;41.410;2.160;2022-10-16T02:36:46;17.47;;;9.67;;
5363;SDS011;2705;41.410;2.160;2022-10-16T02:39:18;20.60;;;9.03;;
5363;SDS011;2705;41.410;2.160;2022-10-16T02:41:49;20.93;;;9.20;;
5363;SDS011;2705;41.410;2.160;2022-10-16T02:44:20;12.30;;;7.90;;
5363;SDS011;2705;41.410;2.160;2022-10-16T02:46:49;12.97;;;7.90;;
5363;SDS011;2705;41.410;2.160;2022-10-16T02:49:19;11.60;;;7.67;;
5363;SDS011;2705;41.410;2.160;2022-10-16T02:51:48;12.10;;;7.33;;
5363;SDS011;2705;41.410;2.160;2022-10-16T02:54:17;13.03;;;8.10;;
5363;SDS011;2705;41.410;2.160;2022-10-16T02:56:47;10.97;;;7.23;;
5363;SDS011;2705;41.410;2.160;2022-10-16T02:59:16;16.00;;;7.77;;
5363;SDS011;2705;41.410;2.160;2022-10-16T03:01:47;11.93;;;8.13;;
5363;SDS011;2705;41.410;2.160;2022-10-16T03:04:16;12.13;;;7.27;;
5363;SDS011;2705;41.410;2.160;2022-10-16T03:06:45;10.03;;;7.20;;
5363;SDS011;2705;41.410;2.160;2022-10-16T03:09:17;15.63;;;7.77;;
5363;SDS011;2705;41.410;2.160;2022-10-16T03:11:46;14.00;;;7.47;;
5363;SDS011;2705;41.410;2.160;2022-10-16T03:14:15;12.23;;;6.73;;
5363;SDS011;2705;41.410;2.160;2022-10-16T03:16:45;14.97;;;7.47;;
5363;SDS011;2705;41.410;2.160;2022-10-16T03:19:15;13.30;;;7.13;;
5363;SDS011;2705;41.410;2.160;2022-10-16T03:21:45;10.13;;;6.10;;
5363;SDS011;2705;41.410;2.160;2022-10-16T03:24:14;10.83;;;7.00;;
5363;SDS011;2705;41.410;2.160;2022-10-16T03:26:43;12.90;;;6.97;;
5363;SDS011;2705;41.410;2.160;2022-10-16T03:29:14;12.73;;;6.43;;
5363;SDS011;2705;41.410;2.160;2022-10-16T03:31:43;11.00;;;6.40;;
5363;SDS011;2705;41.410;2.160;2022-10-16T03:34:14;9.70;;;6.63;;
5363;SDS011;2705;41.410;2.160;2022-10-16T03:36:43;12.50;;;6.93;;
5363;SDS011;2705;41.410;2.160;2022-10-16T03:39:12;13.53;;;6.80;;
5363;SDS011;2705;41.410;2.160;2022-10-16T03:41:42;12.03;;;6.37;;
5363;SDS011;2705;41.410;2.160;2022-10-16T03:44:15;8.13;;;6.00;;
5363;SDS011;2705;41.410;2.160;2022-10-16T03:46:44;12.57;;;6.03;;
5363;SDS011;2705;41.410;2.160;2022-10-16T03:49:15;14.67;;;6.77;;
5363;SDS011;2705;41.410;2.160;2022-10-16T03:51:45;11.03;;;7.30;;
5363;SDS011;2705;41.410;2.160;2022-10-16T03:54:14;9.70;;;5.97;;
5363;SDS011;2705;41.410;2.160;2022-10-16T03:56:44;8.20;;;5.30;;
5363;SDS011;2705;41.410;2.160;2022-10-16T03:59:13;8.03;;;5.50;;
5363;SDS011;2705;41.410;2.160;2022-10-16T04:01:42;9.53;;;6.13;;
5363;SDS011;2705;41.410;2.160;2022-10-16T04:04:12;7.70;;;4.90;;
5363;SDS011;2705;41.410;2.160;2022-10-16T04:06:43;14.43;;;6.37;;
5363;SDS011;2705;41.410;2.160;2022-10-16T04:09:13;13.07;;;5.73;;
5363;SDS011;2705;41.410;2.160;2022-10-16T04:11:45;8.33;;;4.90;;
5363;SDS011;2705;41.410;2.160;2022-10-16T04:14:14;15.03;;;5.57;;
5363;SDS011;2705;41.410;2.160;2022-10-16T04:16:43;10.80;;;4.77;;
5363;SDS011;2705;41.410;2.160;2022-10-16T04:19:15;12.40;;;5.00;;
5363;SDS011;2705;41.410;2.160;2022-10-16T04:21:46;7.70;;;5.00;;
5363;SDS011;2705;41.410;2.160;2022-10-16T04:24:16;11.23;;;5.03;;
5363;SDS011;2705;41.410;2.160;2022-10-16T04:26:45;11.00;;;4.57;;
5363;SDS011;2705;41.410;2.160;2022-10-16T04:29:14;10.80;;;5.37;;
5363;SDS011;2705;41.410;2.160;2022-10-16T04:31:44;12.73;;;5.90;;
5363;SDS011;2705;41.410;2.160;2022-10-16T04:34:13;11.30;;;6.20;;
5363;SDS011;2705;41.410;2.160;2022-10-16T04:36:42;9.17;;;5.80;;
5363;SDS011;2705;41.410;2.160;2022-10-16T04:39:13;13.40;;;6.80;;
5363;SDS011;2705;41.410;2.160;2022-10-16T04:41:43;17.80;;;7.13;;
5363;SDS011;2705;41.410;2.160;2022-10-16T04:44:12;13.50;;;6.60;;
5363;SDS011;2705;41.410;2.160;2022-10-16T04:46:42;9.60;;;6.93;;
5363;SDS011;2705;41.410;2.160;2022-10-16T04:49:11;11.80;;;7.50;;
5363;SDS011;2705;41.410;2.160;2022-10-16T04:51:41;16.17;;;7.77;;
5363;SDS011;2705;41.410;2.160;2022-10-16T04:54:10;12.40;;;7.27;;
5363;SDS011;2705;41.410;2.160;2022-10-16T04:56:41;14.80;;;7.27;;
5363;SDS011;2705;41.410;2.160;2022-10-16T04:59:14;16.07;;;8.43;;
5363;SDS011;2705;41.410;2.160;2022-10-16T05:01:44;14.73;;;7.70;;
5363;SDS011;2705;41.410;2.160;2022-10-16T05:04:13;13.80;;;8.20;;
5363;SDS011;2705;41.410;2.160;2022-10-16T05:06:43;18.27;;;7.90;;
5363;SDS011;2705;41.410;2.160;2022-10-16T05:09:12;10.17;;;8.07;;
5363;SDS011;2705;41.410;2.160;2022-10-16T05:11:43;13.90;;;7.73;;
5363;SDS011;2705;41.410;2.160;2022-10-16T05:14:15;13.10;;;8.50;;
5363;SDS011;2705;41.410;2.160;2022-10-16T05:16:44;15.73;;;7.67;;
5363;SDS011;2705;41.410;2.160;2022-10-16T05:19:15;11.43;;;8.00;;
5363;SDS011;2705;41.410;2.160;2022-10-16T05:21:54;13.30;;;8.20;;
5363;SDS011;2705;41.410;2.160;2022-10-16T05:24:23;12.83;;;7.93;;
5363;SDS011;2705;41.410;2.160;2022-10-16T05:26:55;17.47;;;7.83;;
5363;SDS011;2705;41.410;2.160;2022-10-16T05:29:24;17.17;;;7.20;;
5363;SDS011;2705;41.410;2.160;2022-10-16T05:31:53;19.00;;;7.90;;
5363;SDS011;2705;41.410;2.160;2022-10-16T05:34:23;17.93;;;9.00;;
5363;SDS011;2705;41.410;2.160;2022-10-16T05:36:52;20.83;;;7.97;;
5363;SDS011;2705;41.410;2.160;2022-10-16T05:39:21;20.93;;;9.40;;
5363;SDS011;2705;41.410;2.160;2022-10-16T05:41:51;24.20;;;11.27;;
5363;SDS011;2705;41.410;2.160;2022-10-16T05:44:22;17.43;;;8.37;;
5363;SDS011;2705;41.410;2.160;2022-10-16T05:46:52;20.73;;;8.70;;
5363;SDS011;2705;41.410;2.160;2022-10-16T05:49:22;16.67;;;8.53;;
5363;SDS011;2705;41.410;2.160;2022-10-16T05:51:51;22.70;;;8.83;;
5363;SDS011;2705;41.410;2.160;2022-10-16T05:54:21;22.40;;;9.40;;
5363;SDS011;2705;41.410;2.160;2022-10-16T05:56:51;18.07;;;7.80;;
5363;SDS011;2705;41.410;2.160;2022-10-16T05:59:22;21.23;;;7.53;;
5363;SDS011;2705;41.410;2.160;2022-10-16T06:01:51;18.10;;;6.90;;
5363;SDS011;2705;41.410;2.160;2022-10-16T06:04:20;16.73;;;6.97;;
5363;SDS011;2705;41.410;2.160;2022-10-16T06:06:50;16.33;;;5.97;;
5363;SDS011;2705;41.410;2.160;2022-10-16T06:09:19;14.13;;;6.13;;
5363;SDS011;2705;41.410;2.160;2022-10-16T06:11:48;13.40;;;6.43;;
5363;SDS011;2705;41.410;2.160;2022-10-16T06:14:18;13.83;;;6.37;;
5363;SDS011;2705;41.410;2.160;2022-10-16T06:16:51;18.93;;;6.70;;
5363;SDS011;2705;41.410;2.160;2022-10-16T06:19:22;16.40;;;7.47;;
5363;SDS011;2705;41.410;2.160;2022-10-16T06:21:51;17.57;;;7.40;;
5363;SDS011;2705;41.410;2.160;2022-10-16T06:24:20;18.33;;;6.70;;
5363;SDS011;2705;41.410;2.160;2022-10-16T06:26:49;14.33;;;6.53;;
5363;SDS011;2705;41.410;2.160;2022-10-16T06:29:19;11.07;;;6.33;;
5363;SDS011;2705;41.410;2.160;2022-10-16T06:31:51;20.80;;;7.40;;
5363;SDS011;2705;41.410;2.160;2022-10-16T06:34:20;25.70;;;12.67;;
5363;SDS011;2705;41.410;2.160;2022-10-16T06:36:49;19.10;;;10.10;;
5363;SDS011;2705;41.410;2.160;2022-10-16T06:39:19;15.20;;;10.00;;
5363;SDS011;2705;41.410;2.160;2022-10-16T06:41:49;23.30;;;9.97;;
5363;SDS011;2705;41.410;2.160;2022-10-16T06:44:19;21.30;;;10.30;;
5363;SDS011;2705;41.410;2.160;2022-10-16T06:46:51;19.00;;;11.50;;
5363;SDS011;2705;41.410;2.160;2022-10-16T06:49:20;19.80;;;11.60;;
5363;SDS011;2705;41.410;2.160;2022-10-16T06:51:50;21.60;;;10.80;;
5363;SDS011;2705;41.410;2.160;2022-10-16T06:54:20;18.10;;;12.37;;
5363;SDS011;2705;41.410;2.160;2022-10-16T06:56:50;17.53;;;12.03;;
5363;SDS011;2705;41.410;2.160;2022-10-16T06:59:21;20.07;;;12.43;;
5363;SDS011;2705;41.410;2.160;2022-10-16T07:01:52;18.57;;;12.83;;
5363;SDS011;2705;41.410;2.160;2022-10-16T07:04:22;21.50;;;13.90;;
5363;SDS011;2705;41.410;2.160;2022-10-16T07:06:51;21.47;;;13.13;;
5363;SDS011;2705;41.410;2.160;2022-10-16T07:09:20;21.80;;;11.97;;
5363;SDS011;2705;41.410;2.160;2022-10-16T07:11:49;19.87;;;11.60;;
5363;SDS011;2705;41.410;2.160;2022-10-16T07:14:20;19.47;;;12.50;;
5363;SDS011;2705;41.410;2.160;2022-10-16T07:16:51;23.70;;;13.20;;
5363;SDS011;2705;41.410;2.160;2022-10-16T07:19:23;19.30;;;12.47;;
5363;SDS011;2705;41.410;2.160;2022-10-16T07:21:57;21.10;;;13.30;;
5363;SDS011;2705;41.410;2.160;2022-10-16T07:24:27;22.90;;;12.50;;
5363;SDS011;2705;41.410;2.160;2022-10-16T07:26:56;23.10;;;12.57;;
5363;SDS011;2705;41.410;2.160;2022-10-16T07:29:26;26.80;;;13.80;;
5363;SDS011;2705;41.410;2.160;2022-10-16T07:31:56;21.63;;;13.77;;
5363;SDS011;2705;41.410;2.160;2022-10-16T07:34:26;24.93;;;15.17;;
5363;SDS011;2705;41.410;2.160;2022-10-16T07:36:55;26.30;;;14.90;;
5363;SDS011;2705;41.410;2.160;2022-10-16T07:39:25;25.70;;;15.13;;
5363;SDS011;2705;41.410;2.160;2022-10-16T07:41:54;23.30;;;15.00;;
5363;SDS011;2705;41.410;2.160;2022-10-16T07:44:24;27.53;;;16.30;;
5363;SDS011;2705;41.410;2.160;2022-10-16T07:46:53;24.40;;;15.83;;
5363;SDS011;2705;41.410;2.160;2022-10-16T07:49:25;27.00;;;15.47;;
5363;SDS011;2705;41.410;2.160;2022-10-16T07:51:54;22.40;;;15.90;;
5363;SDS011;2705;41.410;2.160;2022-10-16T07:54:23;25.03;;;15.60;;
5363;SDS011;2705;41.410;2.160;2022-10-16T07:56:53;24.77;;;16.10;;
5363;SDS011;2705;41.410;2.160;2022-10-16T07:59:22;22.70;;;14.60;;
5363;SDS011;2705;41.410;2.160;2022-10-16T08:01:52;20.97;;;14.57;;
5363;SDS011;2705;41.410;2.160;2022-10-16T08:04:23;26.07;;;16.50;;
5363;SDS011;2705;41.410;2.160;2022-10-16T08:06:52;21.60;;;13.93;;
5363;SDS011;2705;41.410;2.160;2022-10-16T08:09:22;32.00;;;17.67;;
5363;SDS011;2705;41.410;2.160;2022-10-16T08:11:51;20.73;;;13.10;;
5363;SDS011;2705;41.410;2.160;2022-10-16T08:14:27;23.00;;;13.13;;
5363;SDS011;2705;41.410;2.160;2022-10-16T08:16:56;23.90;;;13.00;;
5363;SDS011;2705;41.410;2.160;2022-10-16T08:19:32;16.37;;;11.53;;
5363;SDS011;2705;41.410;2.160;2022-10-16T08:22:02;21.30;;;11.37;;
5363;SDS011;2705;41.410;2.160;2022-10-16T08:24:32;18.30;;;11.37;;
5363;SDS011;2705;41.410;2.160;2022-10-16T08:27:02;19.13;;;11.70;;
5363;SDS011;2705;41.410;2.160;2022-10-16T08:29:31;16.33;;;11.27;;
5363;SDS011;2705;41.410;2.160;2022-10-16T08:32:00;17.47;;;11.40;;
5363;SDS011;2705;41.410;2.160;2022-10-16T08:34:34;19.20;;;11.83;;
5363;SDS011;2705;41.410;2.160;2022-10-16T08:37:03;25.50;;;12.97;;
5363;SDS011;2705;41.410;2.160;2022-10-16T08:39:34;15.77;;;10.93;;
5363;SDS011;2705;41.410;2.160;2022-10-16T08:42:11;20.33;;;11.17;;
5363;SDS011;2705;41.410;2.160;2022-10-16T08:45:08;18.80;;;11.30;;
5363;SDS011;2705;41.410;2.160;2022-10-16T08:47:48;21.57;;;12.77;;
5363;SDS011;2705;41.410;2.160;2022-10-16T08:50:25;15.80;;;8.60;;
5363;SDS011;2705;41.410;2.160;2022-10-16T08:52:57;16.70;;;7.87;;
5363;SDS011;2705;41.410;2.160;2022-10-16T08:55:31;15.20;;;8.37;;
5363;SDS011;2705;41.410;2.160;2022-10-16T08:58:10;16.60;;;10.77;;
5363;SDS011;2705;41.410;2.160;2022-10-16T09:00:41;16.20;;;9.50;;
5363;SDS011;2705;41.410;2.160;2022-10-16T09:03:16;19.83;;;11.47;;
5363;SDS011;2705;41.410;2.160;2022-10-16T09:05:57;33.90;;;17.53;;
5363;SDS011;2705;41.410;2.160;2022-10-16T09:08:36;37.83;;;22.30;;
5363;SDS011;2705;41.410;2.160;2022-10-16T09:11:17;17.50;;;8.03;;
5363;SDS011;2705;41.410;2.160;2022-10-16T09:13:54;12.30;;;7.17;;
5363;SDS011;2705;41.410;2.160;2022-10-16T09:16:33;14.20;;;8.37;;
5363;SDS011;2705;41.410;2.160;2022-10-16T09:19:09;15.20;;;8.50;;
5363;SDS011;2705;41.410;2.160;2022-10-16T09:21:47;12.43;;;6.60;;
5363;SDS011;2705;41.410;2.160;2022-10-16T09:24:18;10.93;;;5.50;;
5363;SDS011;2705;41.410;2.160;2022-10-16T09:26:54;28.13;;;14.00;;
5363;SDS011;2705;41.410;2.160;2022-10-16T09:29:23;15.60;;;6.70;;
5363;SDS011;2705;41.410;2.160;2022-10-16T09:31:53;17.47;;;10.03;;
5363;SDS011;2705;41.410;2.160;2022-10-16T09:34:27;19.70;;;12.50;;
5363;SDS011;2705;41.410;2.160;2022-10-16T09:37:03;20.70;;;11.20;;
5363;SDS011;2705;41.410;2.160;2022-10-16T09:39:43;15.77;;;7.70;;
5363;SDS011;2705;41.410;2.160;2022-10-16T09:42:16;16.47;;;8.57;;
5363;SDS011;2705;41.410;2.160;2022-10-16T09:44:47;21.23;;;10.13;;
5363;SDS011;2705;41.410;2.160;2022-10-16T09:47:19;15.90;;;9.23;;
5363;SDS011;2705;41.410;2.160;2022-10-16T09:49:53;16.60;;;9.90;;
5363;SDS011;2705;41.410;2.160;2022-10-16T09:52:26;17.80;;;9.90;;
5363;SDS011;2705;41.410;2.160;2022-10-16T09:54:57;25.60;;;9.90;;
5363;SDS011;2705;41.410;2.160;2022-10-16T09:57:27;15.57;;;8.30;;
5363;SDS011;2705;41.410;2.160;2022-10-16T09:59:58;19.30;;;9.40;;
5363;SDS011;2705;41.410;2.160;2022-10-16T10:02:30;17.10;;;7.60;;
5363;SDS011;2705;41.410;2.160;2022-10-16T10:05:03;17.30;;;9.40;;
5363;SDS011;2705;41.410;2.160;2022-10-16T10:07:52;14.97;;;8.13;;
5363;SDS011;2705;41.410;2.160;2022-10-16T10:10:24;15.80;;;9.50;;
5363;SDS011;2705;41.410;2.160;2022-10-16T10:12:55;17.97;;;10.20;;
5363;SDS011;2705;41.410;2.160;2022-10-16T10:15:27;25.63;;;8.53;;
5363;SDS011;2705;41.410;2.160;2022-10-16T10:18:01;16.70;;;7.90;;
5363;SDS011;2705;41.410;2.160;2022-10-16T10:20:35;14.10;;;8.33;;
5363;SDS011;2705;41.410;2.160;2022-10-16T10:23:19;15.30;;;8.40;;
5363;SDS011;2705;41.410;2.160;2022-10-16T10:25:53;12.90;;;6.73;;
5363;SDS011;2705;41.410;2.160;2022-10-16T10:28:31;17.23;;;7.30;;
5363;SDS011;2705;41.410;2.160;2022-10-16T10:31:18;14.30;;;8.13;;
5363;SDS011;2705;41.410;2.160;2022-10-16T10:33:54;18.73;;;7.73;;
5363;SDS011;2705;41.410;2.160;2022-10-16T10:36:40;18.73;;;8.83;;
5363;SDS011;2705;41.410;2.160;2022-10-16T10:39:13;16.57;;;8.23;;
5363;SDS011;2705;41.410;2.160;2022-10-16T10:41:55;10.63;;;6.30;;
5363;SDS011;2705;41.410;2.160;2022-10-16T10:44:50;14.27;;;6.53;;
5363;SDS011;2705;41.410;2.160;2022-10-16T10:47:42;13.97;;;6.30;;
5363;SDS011;2705;41.410;2.160;2022-10-16T10:50:21;13.90;;;6.07;;
5363;SDS011;2705;41.410;2.160;2022-10-16T10:52:58;16.67;;;8.70;;
5363;SDS011;2705;41.410;2.160;2022-10-16T10:55:39;14.60;;;7.20;;
5363;SDS011;2705;41.410;2.160;2022-10-16T11:01:19;14.03;;;6.17;;
5363;SDS011;2705;41.410;2.160;2022-10-16T11:03:59;17.87;;;7.50;;
5363;SDS011;2705;41.410;2.160;2022-10-16T11:06:52;11.37;;;5.30;;
5363;SDS011;2705;41.410;2.160;2022-10-16T11:09:28;20.77;;;7.10;;
5363;SDS011;2705;41.410;2.160;2022-10-16T11:12:05;19.70;;;6.83;;
5363;SDS011;2705;41.410;2.160;2022-10-16T11:14:40;13.57;;;7.20;;
5363;SDS011;2705;41.410;2.160;2022-10-16T11:17:13;20.00;;;6.40;;
5363;SDS011;2705;41.410;2.160;2022-10-16T11:19:48;20.40;;;6.47;;
5363;SDS011;2705;41.410;2.160;2022-10-16T11:22:23;13.07;;;6.10;;
5363;SDS011;2705;41.410;2.160;2022-10-16T11:24:59;18.50;;;6.40;;
5363;SDS011;2705;41.410;2.160;2022-10-16T11:27:39;14.97;;;6.40;;
5363;SDS011;2705;41.410;2.160;2022-10-16T11:30:15;18.23;;;6.47;;
5363;SDS011;2705;41.410;2.160;2022-10-16T11:32:51;15.83;;;6.97;;
5363;SDS011;2705;41.410;2.160;2022-10-16T11:35:33;15.47;;;7.53;;
5363;SDS011;2705;41.410;2.160;2022-10-16T11:38:12;22.93;;;7.30;;
5363;SDS011;2705;41.410;2.160;2022-10-16T11:41:00;10.07;;;5.63;;
5363;SDS011;2705;41.410;2.160;2022-10-16T11:43:37;17.50;;;5.90;;
5363;SDS011;2705;41.410;2.160;2022-10-16T11:46:10;16.73;;;7.57;;
5363;SDS011;2705;41.410;2.160;2022-10-16T11:48:45;14.37;;;6.70;;
5363;SDS011;2705;41.410;2.160;2022-10-16T11:51:22;18.57;;;7.60;;
5363;SDS011;2705;41.410;2.160;2022-10-16T11:53:59;16.70;;;7.73;;
5363;SDS011;2705;41.410;2.160;2022-10-16T11:56:36;12.37;;;7.00;;
5363;SDS011;2705;41.410;2.160;2022-10-16T11:59:13;14.73;;;7.20;;
5363;SDS011;2705;41.410;2.160;2022-10-16T12:01:49;14.27;;;7.03;;
5363;SDS011;2705;41.410;2.160;2022-10-16T12:04:24;15.10;;;6.67;;
5363;SDS011;2705;41.410;2.160;2022-10-16T12:07:02;18.33;;;6.70;;
5363;SDS011;2705;41.410;2.160;2022-10-16T12:09:36;12.33;;;5.60;;
5363;SDS011;2705;41.410;2.160;2022-10-16T12:15:02;26.37;;;6.97;;
5363;SDS011;2705;41.410;2.160;2022-10-16T12:18:07;16.33;;;6.30;;
5363;SDS011;2705;41.410;2.160;2022-10-16T12:20:54;16.10;;;6.97;;
5363;SDS011;2705;41.410;2.160;2022-10-16T12:23:32;16.60;;;5.83;;
5363;SDS011;2705;41.410;2.160;2022-10-16T12:26:05;18.80;;;6.80;;
5363;SDS011;2705;41.410;2.160;2022-10-16T12:28:35;13.53;;;5.00;;
5363;SDS011;2705;41.410;2.160;2022-10-16T12:31:08;21.70;;;6.07;;
5363;SDS011;2705;41.410;2.160;2022-10-16T12:33:41;14.03;;;7.07;;
5363;SDS011;2705;41.410;2.160;2022-10-16T12:36:26;10.00;;;5.90;;
5363;SDS011;2705;41.410;2.160;2022-10-16T12:38:58;17.60;;;7.00;;
5363;SDS011;2705;41.410;2.160;2022-10-16T12:41:30;14.53;;;7.27;;
5363;SDS011;2705;41.410;2.160;2022-10-16T12:44:02;14.17;;;5.80;;
5363;SDS011;2705;41.410;2.160;2022-10-16T12:46:37;22.67;;;8.10;;
5363;SDS011;2705;41.410;2.160;2022-10-16T12:49:19;18.13;;;7.73;;
5363;SDS011;2705;41.410;2.160;2022-10-16T12:51:51;11.27;;;6.37;;
5363;SDS011;2705;41.410;2.160;2022-10-16T12:54:26;17.67;;;7.20;;
5363;SDS011;2705;41.410;2.160;2022-10-16T12:57:02;21.17;;;5.90;;
5363;SDS011;2705;41.410;2.160;2022-10-16T12:59:39;18.57;;;9.07;;
5363;SDS011;2705;41.410;2.160;2022-10-16T13:02:20;12.47;;;6.70;;
5363;SDS011;2705;41.410;2.160;2022-10-16T13:05:19;20.40;;;6.40;;
5363;SDS011;2705;41.410;2.160;2022-10-16T13:07:59;14.93;;;5.63;;
5363;SDS011;2705;41.410;2.160;2022-10-16T13:10:40;17.07;;;5.73;;
5363;SDS011;2705;41.410;2.160;2022-10-16T13:13:23;12.47;;;6.03;;
5363;SDS011;2705;41.410;2.160;2022-10-16T13:16:09;22.60;;;7.00;;
5363;SDS011;2705;41.410;2.160;2022-10-16T13:18:50;12.30;;;5.97;;
5363;SDS011;2705;41.410;2.160;2022-10-16T13:21:34;14.50;;;5.97;;
5363;SDS011;2705;41.410;2.160;2022-10-16T13:24:13;16.20;;;7.23;;
5363;SDS011;2705;41.410;2.160;2022-10-16T13:26:50;13.00;;;6.10;;
5363;SDS011;2705;41.410;2.160;2022-10-16T13:29:29;15.43;;;6.03;;
5363;SDS011;2705;41.410;2.160;2022-10-16T13:32:00;11.17;;;5.47;;
5363;SDS011;2705;41.410;2.160;2022-10-16T13:34:44;18.47;;;7.50;;
5363;SDS011;2705;41.410;2.160;2022-10-16T13:37:18;14.93;;;5.57;;
5363;SDS011;2705;41.410;2.160;2022-10-16T13:39:48;11.50;;;6.70;;
5363;SDS011;2705;41.410;2.160;2022-10-16T13:42:22;19.03;;;6.10;;
5363;SDS011;2705;41.410;2.160;2022-10-16T13:44:54;12.23;;;6.00;;
5363;SDS011;2705;41.410;2.160;2022-10-16T13:47:25;14.57;;;7.70;;
5363;SDS011;2705;41.410;2.160;2022-10-16T13:50:03;18.83;;;8.00;;
5363;SDS011;2705;41.410;2.160;2022-10-16T13:52:36;12.40;;;5.13;;
5363;SDS011;2705;41.410;2.160;2022-10-16T13:55:09;11.30;;;5.77;;
5363;SDS011;2705;41.410;2.160;2022-10-16T13:57:40;19.93;;;7.77;;
5363;SDS011;2705;41.410;2.160;2022-10-16T14:00:21;11.30;;;5.50;;
5363;SDS011;2705;41.410;2.160;2022-10-16T14:02:54;11.87;;;6.47;;
5363;SDS011;2705;41.410;2.160;2022-10-16T14:05:29;12.73;;;5.77;;
5363;SDS011;2705;41.410;2.160;2022-10-16T14:07:59;21.23;;;7.57;;
5363;SDS011;2705;41.410;2.160;2022-10-16T14:10:30;10.20;;;5.23;;
5363;SDS011;2705;41.410;2.160;2022-10-16T14:13:04;12.33;;;5.70;;
5363;SDS011;2705;41.410;2.160;2022-10-16T14:15:35;11.93;;;5.63;;
5363;SDS011;2705;41.410;2.160;2022-10-16T14:18:06;11.40;;;5.27;;
5363;SDS011;2705;41.410;2.160;2022-10-16T14:20:37;10.50;;;6.70;;
5363;SDS011;2705;41.410;2.160;2022-10-16T14:23:18;12.03;;;4.70;;
5363;SDS011;2705;41.410;2.160;2022-10-16T14:25:51;15.13;;;4.80;;
5363;SDS011;2705;41.410;2.160;2022-10-16T14:28:21;13.40;;;6.00;;
5363;SDS011;2705;41.410;2.160;2022-10-16T14:30:53;17.00;;;5.03;;
5363;SDS011;2705;41.410;2.160;2022-10-16T14:33:31;11.40;;;4.17;;
5363;SDS011;2705;41.410;2.160;2022-10-16T14:36:04;7.40;;;3.80;;
5363;SDS011;2705;41.410;2.160;2022-10-16T14:38:43;13.70;;;4.50;;
5363;SDS011;2705;41.410;2.160;2022-10-16T14:41:19;11.20;;;5.30;;
5363;SDS011;2705;41.410;2.160;2022-10-16T14:43:51;10.13;;;5.17;;
5363;SDS011;2705;41.410;2.160;2022-10-16T14:46:23;14.10;;;4.63;;
5363;SDS011;2705;41.410;2.160;2022-10-16T14:49:01;13.23;;;4.50;;
5363;SDS011;2705;41.410;2.160;2022-10-16T14:51:49;12.17;;;4.57;;
5363;SDS011;2705;41.410;2.160;2022-10-16T14:54:19;7.73;;;4.20;;
5363;SDS011;2705;41.410;2.160;2022-10-16T14:56:49;7.30;;;3.50;;
5363;SDS011;2705;41.410;2.160;2022-10-16T14:59:23;15.60;;;4.07;;
5363;SDS011;2705;41.410;2.160;2022-10-16T15:01:57;6.70;;;3.60;;
5363;SDS011;2705;41.410;2.160;2022-10-16T15:04:27;8.73;;;4.40;;
5363;SDS011;2705;41.410;2.160;2022-10-16T15:06:58;11.70;;;4.27;;
5363;SDS011;2705;41.410;2.160;2022-10-16T15:09:27;13.40;;;5.30;;
5363;SDS011;2705;41.410;2.160;2022-10-16T15:11:57;12.50;;;3.40;;
5363;SDS011;2705;41.410;2.160;2022-10-16T15:14:27;9.17;;;3.33;;
5363;SDS011;2705;41.410;2.160;2022-10-16T15:16:56;19.70;;;8.20;;
5363;SDS011;2705;41.410;2.160;2022-10-16T15:19:26;11.00;;;4.43;;
5363;SDS011;2705;41.410;2.160;2022-10-16T15:21:55;13.43;;;4.80;;
5363;SDS011;2705;41.410;2.160;2022-10-16T15:24:26;12.07;;;5.83;;
5363;SDS011;2705;41.410;2.160;2022-10-16T15:26:56;10.37;;;4.87;;
5363;SDS011;2705;41.410;2.160;2022-10-16T15:29:26;14.47;;;5.43;;
5363;SDS011;2705;41.410;2.160;2022-10-16T15:31:55;10.07;;;4.00;;
5363;SDS011;2705;41.410;2.160;2022-10-16T15:34:26;9.57;;;4.07;;
5363;SDS011;2705;41.410;2.160;2022-10-16T15:36:56;9.57;;;4.70;;
5363;SDS011;2705;41.410;2.160;2022-10-16T15:39:27;8.23;;;4.50;;
5363;SDS011;2705;41.410;2.160;2022-10-16T15:42:04;7.87;;;4.10;;